Time;durP1;ratioP1;P1;durP2;ratioP2;P2;SDS_P1;SDS_P2;PMS_P1;PMS_P2;Temp;Humidity;BMP_temperature;BMP_pressure;BME280_temperature;BME280_humidity;BME280_pressure;Samples;Min_cycle;Max_cycle;Signal;HPM_P1;HPM_P2
2021/12/12 00:01:35;;;;;;;18.48;7.38;;;;;;;4.35;88.94;102041.56;5095332;28;20036;-65
2021/12/12 00:04:14;;;;;;;20.63;6.38;;;;;;;4.37;88.81;102037.34;5095388;28;20027;-65
2021/12/12 00:06:55;;;;;;;24.30;7.35;;;;;;;4.34;89.14;102031.03;5095573;28;20372;-65
2021/12/12 00:09:33;;;;;;;21.85;6.78;;;;;;;4.36;89.50;102032.00;5095094;28;20028;-65
2021/12/12 00:12:04;;;;;;;20.35;6.75;;;;;;;4.40;88.51;102036.59;5095422;28;20380;-65
2021/12/12 00:14:32;;;;;;;21.08;6.63;;;;;;;4.39;88.89;102027.84;5095511;28;20032;-65
2021/12/12 00:16:59;;;;;;;20.48;6.53;;;;;;;4.39;88.77;102027.84;5095162;28;20082;-65
2021/12/12 00:19:26;;;;;;;20.23;6.72;;;;;;;4.39;88.55;102033.06;5095116;28;20107;-65
2021/12/12 00:21:56;;;;;;;16.90;6.18;;;;;;;4.43;88.78;102027.19;5095010;28;20030;-65
2021/12/12 00:24:23;;;;;;;17.67;5.75;;;;;;;4.45;89.27;102025.59;5094971;28;20419;-65
2021/12/12 00:26:52;;;;;;;25.05;6.38;;;;;;;4.48;88.65;102024.81;5095014;28;20073;-66
2021/12/12 00:29:20;;;;;;;22.92;6.43;;;;;;;4.47;88.58;102018.69;5095009;28;20032;-65
2021/12/12 00:31:51;;;;;;;20.55;6.20;;;;;;;4.48;88.53;102028.34;5093686;28;20128;-65
2021/12/12 00:34:17;;;;;;;21.45;7.00;;;;;;;4.50;89.03;102012.75;5094933;28;20078;-65
2021/12/12 00:36:43;;;;;;;18.58;5.75;;;;;;;4.51;88.85;102019.78;5094499;28;20515;-65
2021/12/12 00:39:16;;;;;;;21.38;6.35;;;;;;;4.58;87.77;102014.03;5094981;28;20028;-65
2021/12/12 00:41:54;;;;;;;21.55;6.38;;;;;;;4.53;87.97;102007.66;5094711;28;20477;-65
2021/12/12 00:44:20;;;;;;;19.45;6.15;;;;;;;4.55;87.93;102008.66;5094720;28;20058;-64
2021/12/12 00:46:46;;;;;;;25.63;6.40;;;;;;;4.54;88.12;102001.63;5094899;28;20099;-65
2021/12/12 00:49:15;;;;;;;23.50;6.30;;;;;;;4.58;88.77;102005.28;5094372;28;20449;-66
2021/12/12 00:51:43;;;;;;;19.48;6.10;;;;;;;4.59;88.56;102000.16;5094492;28;20039;-65
2021/12/12 00:54:11;;;;;;;23.15;5.97;;;;;;;4.58;88.11;102010.50;5094400;28;20477;-65
2021/12/12 00:56:38;;;;;;;23.10;6.05;;;;;;;4.60;88.78;102003.66;5094416;28;20051;-65
2021/12/12 00:59:05;;;;;;;16.88;5.93;;;;;;;4.59;88.17;101999.25;5094581;28;20412;-65
2021/12/12 01:01:36;;;;;;;19.35;6.28;;;;;;;4.60;88.46;101988.84;5094343;28;20035;-65
2021/12/12 01:04:14;;;;;;;19.38;6.57;;;;;;;4.58;88.71;101986.94;5094388;28;20373;-65
2021/12/12 01:06:40;;;;;;;20.38;5.65;;;;;;;4.56;88.80;101981.66;5094079;28;20059;-65
2021/12/12 01:09:27;;;;;;;20.55;5.75;;;;;;;4.60;89.61;101980.09;5094020;28;20039;-65
2021/12/12 01:11:57;;;;;;;19.75;5.90;;;;;;;4.59;89.70;101978.31;5094203;28;20036;-65
2021/12/12 01:14:28;;;;;;;23.60;6.57;;;;;;;4.57;89.19;101982.53;5093837;28;20085;-65
2021/12/12 01:17:05;;;;;;;19.38;6.25;;;;;;;4.56;89.23;101988.59;5094120;28;20117;-66
2021/12/12 01:19:35;;;;;;;22.95;6.05;;;;;;;4.58;89.65;101989.56;5094200;28;20032;-65
2021/12/12 01:22:08;;;;;;;21.02;7.03;;;;;;;4.57;90.31;101985.16;5094010;28;20024;-65
2021/12/12 01:24:39;;;;;;;19.08;6.25;;;;;;;4.55;89.75;101976.34;5093844;28;20024;-65
2021/12/12 01:27:07;;;;;;;23.90;6.63;;;;;;;4.59;90.28;101980.94;5093613;28;20024;-65
2021/12/12 01:29:33;;;;;;;17.88;6.90;;;;;;;4.60;90.02;101987.94;5093725;28;20473;-65
2021/12/12 01:32:03;;;;;;;21.35;6.75;;;;;;;4.61;89.22;101990.63;5093516;28;20051;-65
2021/12/12 01:34:32;;;;;;;22.42;6.72;;;;;;;4.60;90.04;101982.72;5093692;28;20035;-66
2021/12/12 01:37:34;;;;;;;17.35;5.75;;;;;;;4.60;90.01;101991.47;5093504;28;20020;-65
2021/12/12 01:40:26;;;;;;;18.85;6.30;;;;;;;4.62;90.10;101984.56;5093248;28;20044;-64
2021/12/12 01:42:58;;;;;;;20.52;6.68;;;;;;;4.64;90.51;101989.91;5091188;28;20044;-65
2021/12/12 01:45:39;;;;;;;18.25;6.20;;;;;;;4.64;89.94;101984.69;5093762;28;20024;-65
2021/12/12 01:48:14;;;;;;;18.33;5.95;;;;;;;4.65;90.63;101981.22;5093394;28;20043;-65
2021/12/12 01:50:45;;;;;;;20.23;7.18;;;;;;;4.64;90.69;101977.72;5093443;28;20161;-65
2021/12/12 01:53:14;;;;;;;17.92;6.07;;;;;;;4.67;90.14;102004.06;5093321;28;20036;-65
2021/12/12 01:55:46;;;;;;;19.58;6.70;;;;;;;4.67;90.90;101984.84;5093351;28;20039;-65
2021/12/12 01:58:14;;;;;;;;;;;;;;;4.72;89.83;101988.59;5093778;28;20020;-65
2021/12/12 02:00:54;;;;;;;23.40;6.55;;;;;;;4.69;90.65;101978.84;5093258;28;19954;-65
2021/12/12 02:03:23;;;;;;;22.83;6.82;;;;;;;4.70;90.26;101982.38;5093203;28;20036;-65
2021/12/12 02:05:49;;;;;;;20.92;6.43;;;;;;;4.69;91.01;101983.19;5093302;28;20035;-65
2021/12/12 02:08:18;;;;;;;17.90;6.05;;;;;;;4.69;90.91;101985.81;5093125;28;20024;-65
2021/12/12 02:10:48;;;;;;;22.48;7.20;;;;;;;4.68;91.56;101979.69;5093141;28;20501;-66
2021/12/12 02:13:16;;;;;;;16.55;5.75;;;;;;;4.69;91.54;101976.25;5093079;28;20024;-65
2021/12/12 02:15:47;;;;;;;18.98;6.63;;;;;;;4.69;91.45;101973.63;5093248;28;20035;-66
2021/12/12 02:18:16;;;;;;;21.45;6.07;;;;;;;4.73;91.32;101972.97;5093257;28;20055;-66
2021/12/12 02:21:04;;;;;;;16.52;5.55;;;;;;;4.72;91.15;101970.28;5093295;28;20032;-66
2021/12/12 02:24:14;;;;;;;25.70;6.53;;;;;;;4.73;91.44;101972.97;5093077;28;20059;-65
2021/12/12 02:37:15;;;;;;;22.60;6.72;;;;;;;4.81;92.34;101967.25;5093185;28;20119;-65
2021/12/12 02:39:41;;;;;;;20.55;6.28;;;;;;;4.86;91.44;101973.59;5093005;28;20107;-65
2021/12/12 02:42:12;;;;;;;17.98;5.90;;;;;;;4.87;91.64;101978.91;5093043;28;20491;-65
2021/12/12 02:44:39;;;;;;;16.85;5.75;;;;;;;4.88;91.65;101965.03;5093251;28;20020;-65
2021/12/12 02:47:14;;;;;;;19.92;6.07;;;;;;;4.88;91.89;101957.16;5092867;28;20059;-65
2021/12/12 02:49:55;;;;;;;21.35;6.47;;;;;;;4.91;92.32;101948.56;5092897;28;20059;-65
2021/12/12 02:52:28;;;;;;;20.58;5.70;;;;;;;4.92;92.18;101937.25;5092740;28;20059;-65
2021/12/12 02:55:00;;;;;;;23.58;6.35;;;;;;;4.93;91.87;101939.06;5093827;28;20055;-65
2021/12/12 02:57:25;;;;;;;27.17;7.03;;;;;;;4.95;91.98;101942.66;5096567;28;20040;-65
2021/12/12 02:59:51;;;;;;;19.63;6.05;;;;;;;4.96;92.76;101937.47;5096743;28;20107;-65
2021/12/12 03:02:33;;;;;;;27.48;6.40;;;;;;;4.95;92.99;101942.66;5096575;28;20020;-65
2021/12/12 03:05:04;;;;;;;22.88;6.53;;;;;;;4.97;92.97;101930.56;5096778;28;20024;-65
2021/12/12 03:07:30;;;;;;;24.27;6.85;;;;;;;4.95;93.14;101929.56;5096398;28;20043;-65
2021/12/12 03:09:57;;;;;;;17.30;5.95;;;;;;;4.96;94.00;101932.25;5096289;28;20020;-65
2021/12/12 03:12:31;;;;;;;23.90;6.10;;;;;;;4.95;93.47;101934.78;5096602;28;20036;-65
2021/12/12 03:15:02;;;;;;;22.48;7.40;;;;;;;4.93;93.82;101937.34;5096686;28;20028;-65
2021/12/12 03:17:28;;;;;;;20.42;6.45;;;;;;;4.95;93.70;101942.66;5096372;28;20024;-64
2021/12/12 03:19:57;;;;;;;21.20;6.22;;;;;;;4.97;94.23;101941.91;5096550;28;20103;-65
2021/12/12 03:22:25;;;;;;;18.15;5.93;;;;;;;4.97;94.38;101941.03;5096193;28;20465;-64
2021/12/12 03:24:51;;;;;;;22.05;5.97;;;;;;;4.99;94.12;101928.88;5096005;28;20035;-65
2021/12/12 03:27:20;;;;;;;17.70;6.25;;;;;;;5.00;94.09;101926.34;5096145;28;20103;-65
2021/12/12 03:29:48;;;;;;;20.25;6.53;;;;;;;5.05;94.70;101923.06;5096050;28;20028;-65
2021/12/12 03:32:21;;;;;;;15.88;5.78;;;;;;;5.04;94.59;101914.31;5095843;28;20504;-65
2021/12/12 03:34:52;;;;;;;20.52;6.75;;;;;;;5.05;94.22;101910.84;5096124;28;20116;-65
2021/12/12 03:37:21;;;;;;;22.15;7.25;;;;;;;5.06;94.65;101911.78;5095807;28;20032;-64
2021/12/12 03:39:51;;;;;;;20.45;6.78;;;;;;;5.08;94.66;101907.50;5095940;28;20028;-65
2021/12/12 03:42:22;;;;;;;26.65;6.47;;;;;;;5.09;95.36;101909.28;5095964;28;20024;-65
2021/12/12 03:44:49;;;;;;;23.00;6.78;;;;;;;5.14;94.49;101908.72;5096133;28;20050;-65
2021/12/12 03:47:43;;;;;;;18.98;6.25;;;;;;;5.13;94.80;101901.66;5095802;28;20024;-65
2021/12/12 03:50:14;;;;;;;19.35;6.63;;;;;;;5.16;94.59;101909.69;5095787;28;20024;-64
2021/12/12 03:52:40;;;;;;;17.00;6.43;;;;;;;5.17;94.96;101900.09;5095610;28;20550;-64
2021/12/12 03:55:07;;;;;;;19.23;5.68;;;;;;;5.19;94.92;101904.59;5095674;28;20024;-65
2021/12/12 03:57:33;;;;;;;21.55;7.30;;;;;;;5.16;95.55;101901.81;5095536;28;20031;-65
2021/12/12 04:00:07;;;;;;;23.63;7.15;;;;;;;5.15;95.88;101914.84;5095863;28;20028;-65
2021/12/12 04:02:34;;;;;;;16.27;6.75;;;;;;;5.17;96.09;101905.31;5095288;28;20460;-65
2021/12/12 04:04:59;;;;;;;16.65;6.65;;;;;;;5.16;95.92;101916.63;5095477;28;20031;-65
2021/12/12 04:07:30;;;;;;;15.80;6.70;;;;;;;5.20;95.76;101902.88;5095116;28;20024;-65
2021/12/12 04:09:56;;;;;;;20.73;7.30;;;;;;;5.20;95.59;101911.63;5095311;28;20044;-65
2021/12/12 04:12:23;;;;;;;18.20;7.43;;;;;;;5.25;95.56;101898.75;5095330;28;20039;-65
2021/12/12 04:14:50;;;;;;;14.25;7.25;;;;;;;5.30;95.89;101901.59;5095339;28;20081;-65
2021/12/12 04:17:21;;;;;;;16.90;7.07;;;;;;;5.32;95.52;101905.19;5095046;28;20024;-64
2021/12/12 04:19:49;;;;;;;21.35;6.90;;;;;;;5.34;95.66;101921.88;5095272;28;20062;-65
2021/12/12 04:22:15;;;;;;;19.95;7.30;;;;;;;5.36;95.56;101915.00;5095255;28;20032;-65
2021/12/12 04:24:45;;;;;;;23.27;7.80;;;;;;;5.37;95.25;101925.56;5095123;28;20035;-66
2021/12/12 04:27:12;;;;;;;16.45;7.28;;;;;;;5.36;95.69;101915.00;5095264;28;20035;-64
2021/12/12 04:29:41;;;;;;;20.55;7.13;;;;;;;5.38;95.62;101916.88;5094825;28;20040;-65
2021/12/12 04:32:13;;;;;;;16.42;6.55;;;;;;;5.39;95.12;101904.66;5094780;28;20051;-65
2021/12/12 04:34:42;;;;;;;15.43;6.93;;;;;;;5.38;95.75;101913.34;5095027;28;20055;-65
2021/12/12 04:37:10;;;;;;;17.27;7.75;;;;;;;5.42;95.14;101918.81;5094910;28;20028;-65
2021/12/12 04:39:39;;;;;;;17.33;7.43;;;;;;;5.40;95.77;101912.63;5094723;28;20469;-65
2021/12/12 04:42:13;;;;;;;17.92;7.25;;;;;;;5.40;95.64;101916.97;5094678;28;20020;-65
2021/12/12 04:44:41;;;;;;;17.05;6.78;;;;;;;5.41;95.68;101903.03;5094617;28;20519;-65
2021/12/12 04:50:24;;;;;;;14.88;7.93;;;;;;;5.42;95.99;101925.78;5094696;28;20507;-65
2021/12/12 04:52:56;;;;;;;14.20;6.63;;;;;;;5.43;96.22;101922.34;5094416;28;20058;-65
2021/12/12 04:55:34;;;;;;;16.65;7.25;;;;;;;5.43;96.01;101915.38;5094415;28;20169;-65
2021/12/12 04:58:05;;;;;;;15.02;7.13;;;;;;;5.44;96.17;101918.91;5094677;28;20028;-65
2021/12/12 05:00:36;;;;;;;15.13;6.25;;;;;;;5.47;96.06;101919.03;5094466;28;20028;-65
2021/12/12 05:03:20;;;;;;;15.50;7.32;;;;;;;5.46;95.98;101918.16;5094343;28;20117;-65
2021/12/12 05:06:00;;;;;;;15.85;7.05;;;;;;;5.49;95.82;101914.78;5094322;28;20061;-65
2021/12/12 05:08:42;;;;;;;16.67;7.20;;;;;;;5.47;96.05;101924.28;5094186;28;20448;-65
2021/12/12 05:11:13;;;;;;;13.13;7.72;;;;;;;5.46;96.58;101918.16;5094016;28;20042;-65
2021/12/12 05:13:49;;;;;;;15.88;6.82;;;;;;;5.50;96.40;101938.44;5094114;28;20031;-65
2021/12/12 05:16:20;;;;;;;13.63;6.80;;;;;;;5.52;95.95;101933.25;5094042;28;20032;-65
2021/12/12 05:18:51;;;;;;;13.82;7.00;;;;;;;5.53;95.94;101924.59;5093380;28;20082;-66
2021/12/12 05:21:23;;;;;;;17.80;7.90;;;;;;;5.54;95.90;101931.63;5094051;28;20389;-65
2021/12/12 05:23:51;;;;;;;15.07;6.50;;;;;;;5.56;96.46;101934.31;5093730;28;20529;-65
2021/12/12 05:26:25;;;;;;;13.07;6.93;;;;;;;5.54;96.47;101939.50;5093851;28;20024;-66
2021/12/12 05:29:00;;;;;;;13.52;6.85;;;;;;;5.56;96.42;101939.56;5093760;28;20032;-66
2021/12/12 05:31:28;;;;;;;10.40;5.97;;;;;;;5.58;96.04;101933.56;5093586;28;20493;-65
2021/12/12 05:33:54;;;;;;;14.10;7.03;;;;;;;5.59;96.41;101922.25;5093782;28;20500;-65
2021/12/12 05:36:21;;;;;;;11.43;6.47;;;;;;;5.60;96.59;101928.41;5093671;28;20024;-65
2021/12/12 05:38:47;;;;;;;16.15;7.40;;;;;;;5.59;96.53;101930.13;5094002;28;20051;-64
2021/12/12 05:41:18;;;;;;;14.38;7.00;;;;;;;5.59;96.79;101939.72;5093530;28;20020;-64
2021/12/12 05:43:45;;;;;;;13.93;6.75;;;;;;;5.61;96.36;101938.97;5093936;28;20422;-65
2021/12/12 05:46:15;;;;;;;14.27;6.88;;;;;;;5.62;96.78;101946.00;5093602;28;20039;-65
2021/12/12 05:48:41;;;;;;;12.25;6.47;;;;;;;5.65;96.69;101937.38;5093562;28;20059;-65
2021/12/12 05:51:06;;;;;;;12.57;6.72;;;;;;;5.66;96.77;101942.72;5093440;28;20039;-65
2021/12/12 05:53:32;;;;;;;12.82;7.35;;;;;;;5.67;96.73;101949.75;5093572;28;20016;-65
2021/12/12 05:55:58;;;;;;;9.20;6.38;;;;;;;5.67;96.70;101947.13;5093497;28;20419;-65
2021/12/12 05:58:23;;;;;;;11.48;6.70;;;;;;;5.71;96.69;101948.19;5093592;28;20048;-65
2021/12/12 06:00:55;;;;;;;9.05;6.43;;;;;;;5.73;96.89;101943.88;5093529;28;20098;-65
2021/12/12 06:03:25;;;;;;;10.10;5.90;;;;;;;5.72;96.89;101952.59;5093297;28;20127;-66
2021/12/12 06:05:53;;;;;;;11.65;6.10;;;;;;;5.76;96.69;101942.31;5093403;28;20114;-66
2021/12/12 06:08:21;;;;;;;13.38;6.57;;;;;;;5.78;96.64;101955.50;5093227;28;20448;-65
2021/12/12 06:10:47;;;;;;;13.38;7.00;;;;;;;5.79;97.17;101941.56;5093219;28;20024;-65
2021/12/12 06:13:16;;;;;;;10.55;6.65;;;;;;;5.82;97.13;101954.81;5093233;28;20028;-65
2021/12/12 06:15:45;;;;;;;13.02;6.78;;;;;;;5.85;96.79;101965.47;5093230;28;20031;-65
2021/12/12 06:18:12;;;;;;;10.40;5.97;;;;;;;5.87;96.84;101968.19;5093130;28;20032;-64
2021/12/12 06:20:40;;;;;;;12.00;7.03;;;;;;;5.88;96.44;101967.34;5093222;28;20082;-65
2021/12/12 06:23:06;;;;;;;10.57;6.50;;;;;;;5.90;96.99;101970.94;5092983;28;20461;-65
2021/12/12 06:25:31;;;;;;;10.90;6.15;;;;;;;5.92;96.72;101969.31;5093217;28;20106;-65
2021/12/12 06:27:57;;;;;;;9.35;5.93;;;;;;;5.93;96.62;101974.63;5093197;28;20108;-65
2021/12/12 06:30:24;;;;;;;10.00;6.57;;;;;;;5.97;96.67;101959.94;5096966;28;20439;-66
2021/12/12 06:32:51;;;;;;;14.18;6.85;;;;;;;6.01;97.24;101968.03;5078830;28;20446;-65
2021/12/12 06:35:19;;;;;;;12.32;6.63;;;;;;;6.02;96.66;101966.28;5097270;28;20024;-65
2021/12/12 06:37:46;;;;;;;11.80;6.70;;;;;;;6.02;97.05;101955.81;5097003;28;20115;-65
2021/12/12 06:40:15;;;;;;;9.25;6.15;;;;;;;6.03;96.78;101962.84;5096961;28;20043;-65
2021/12/12 06:42:44;;;;;;;14.32;7.38;;;;;;;6.03;96.76;101968.97;5097162;28;20028;-65
2021/12/12 06:45:11;;;;;;;12.52;7.10;;;;;;;6.05;96.86;101971.69;5096941;28;20103;-65
2021/12/12 06:47:38;;;;;;;11.50;7.10;;;;;;;6.08;97.02;101955.19;5096963;28;20055;-64
2021/12/12 06:50:05;;;;;;;11.43;6.68;;;;;;;6.08;97.21;101968.31;5096893;28;20054;-65
2021/12/12 06:52:31;;;;;;;12.38;6.82;;;;;;;6.11;96.84;101966.72;5096615;28;20035;-65
2021/12/12 06:54:57;;;;;;;12.07;6.32;;;;;;;6.12;96.74;101965.88;5096868;28;20150;-65
2021/12/12 06:57:22;;;;;;;9.55;6.30;;;;;;;6.14;96.84;101972.13;5096844;28;20107;-65
2021/12/12 06:59:50;;;;;;;10.43;6.47;;;;;;;6.21;96.69;101978.53;5096827;28;20388;-65
2021/12/12 07:02:17;;;;;;;15.32;7.05;;;;;;;6.22;97.10;101977.75;5096547;28;20032;-65
2021/12/12 07:04:44;;;;;;;14.98;7.20;;;;;;;6.25;97.01;101983.09;5096535;28;20479;-65
2021/12/12 07:07:11;;;;;;;12.38;7.13;;;;;;;6.25;97.15;101976.16;5096515;28;20470;-65
2021/12/12 07:09:40;;;;;;;14.48;7.07;;;;;;;6.27;96.77;101979.75;5096401;28;20036;-65
2021/12/12 07:12:09;;;;;;;14.32;7.63;;;;;;;6.30;97.19;101975.47;5096806;28;20028;-65
2021/12/12 07:14:37;;;;;;;10.85;7.53;;;;;;;6.30;97.38;101976.38;5096656;28;20024;-65
2021/12/12 07:17:04;;;;;;;10.98;7.15;;;;;;;6.31;96.78;101978.16;5096285;28;20396;-65
2021/12/12 07:19:30;;;;;;;15.68;7.15;;;;;;;6.35;97.42;101971.31;5096275;28;20059;-65
2021/12/12 07:21:59;;;;;;;13.15;8.20;;;;;;;6.37;96.72;101981.06;5096194;28;20024;-65
2021/12/12 07:24:25;;;;;;;15.13;7.95;;;;;;;6.37;97.51;101985.41;5096119;28;20434;-64
2021/12/12 07:26:54;;;;;;;16.15;8.20;;;;;;;6.39;97.16;101982.03;5096346;28;20032;-64
2021/12/12 07:29:20;;;;;;;11.98;7.40;;;;;;;6.43;97.01;101973.47;5096238;28;20020;-65
2021/12/12 07:31:46;;;;;;;11.68;7.85;;;;;;;6.44;97.67;101977.00;5095593;28;20496;-65
2021/12/12 07:34:14;;;;;;;14.20;8.00;;;;;;;6.47;97.06;101983.28;5096046;28;20111;-65
2021/12/12 07:36:54;;;;;;;15.88;8.65;;;;;;;6.49;97.42;101993.84;5095840;28;20081;-65
2021/12/12 07:39:22;;;;;;;17.00;9.27;;;;;;;6.52;97.43;101978.25;5095823;28;20111;-65
2021/12/12 07:41:55;;;;;;;13.10;7.75;;;;;;;6.57;96.85;101978.44;5095226;28;20464;-65
2021/12/12 07:44:24;;;;;;;14.85;7.78;;;;;;;6.54;97.14;101973.94;5095798;28;20476;-65
2021/12/12 07:46:58;;;;;;;12.63;7.50;;;;;;;6.58;97.07;101980.25;5095761;28;20040;-64
2021/12/12 07:49:30;;;;;;;14.73;7.70;;;;;;;6.58;97.10;101982.88;5095631;28;20107;-65
2021/12/12 07:51:57;;;;;;;15.38;8.13;;;;;;;6.58;97.42;101996.00;5095921;28;20419;-65
2021/12/12 07:54:22;;;;;;;16.08;8.38;;;;;;;6.60;97.00;101994.34;5095511;28;20123;-65
2021/12/12 07:56:49;;;;;;;19.25;8.77;;;;;;;6.59;97.68;101982.03;5095577;28;20532;-66
2021/12/12 07:59:17;;;;;;;15.15;7.60;;;;;;;6.62;97.50;101983.06;5095502;28;20024;-65
2021/12/12 08:01:46;;;;;;;21.55;8.68;;;;;;;6.63;97.29;101984.84;5095514;28;20075;-65
2021/12/12 08:04:13;;;;;;;17.50;8.65;;;;;;;6.64;97.62;101999.81;5095278;28;20522;-65
2021/12/12 08:06:40;;;;;;;16.92;8.60;;;;;;;6.67;97.88;102001.66;5095405;28;20024;-65
2021/12/12 08:09:11;;;;;;;14.98;8.65;;;;;;;6.70;97.56;102005.31;5095443;28;20016;-64
2021/12/12 08:11:38;;;;;;;18.42;8.05;;;;;;;6.71;97.01;102017.63;5095150;28;20423;-64
2021/12/12 08:14:06;;;;;;;16.65;9.13;;;;;;;6.74;97.69;102011.63;5095246;28;20028;-65
2021/12/12 08:16:33;;;;;;;15.88;8.88;;;;;;;6.77;97.72;102017.03;5095038;28;20032;-64
2021/12/12 08:19:00;;;;;;;17.92;9.43;;;;;;;6.76;98.01;102018.72;5095113;28;20063;-64
2021/12/12 08:21:26;;;;;;;18.55;9.27;;;;;;;6.81;97.80;102018.03;5095123;28;20038;-65
2021/12/12 08:23:55;;;;;;;22.60;8.80;;;;;;;6.82;97.84;102025.09;5094842;28;20371;-64
2021/12/12 08:26:22;;;;;;;18.38;8.70;;;;;;;6.85;97.01;102030.47;5094903;28;20027;-64
2021/12/12 08:28:48;;;;;;;19.02;8.73;;;;;;;6.86;97.58;102027.94;5095203;28;20036;-64
2021/12/12 08:31:16;;;;;;;23.33;9.05;;;;;;;6.88;97.61;102038.50;5094494;28;20035;-65
2021/12/12 08:33:42;;;;;;;23.92;10.73;;;;;;;6.91;97.79;102041.28;5094742;28;20131;-65
2021/12/12 08:36:09;;;;;;;14.93;8.77;;;;;;;6.91;98.79;102042.19;5094861;28;20024;-64
2021/12/12 08:38:35;;;;;;;22.02;9.27;;;;;;;6.91;97.91;102038.66;5094919;28;20390;-64
2021/12/12 08:41:03;;;;;;;19.88;9.77;;;;;;;6.92;98.25;102030.81;5094855;28;20062;-65
2021/12/12 08:43:29;;;;;;;20.13;9.75;;;;;;;6.93;98.41;102036.97;5094550;28;20045;-65
2021/12/12 08:45:58;;;;;;;19.58;9.75;;;;;;;6.96;98.73;102045.00;5094721;28;20024;-66
2021/12/12 08:48:30;;;;;;;15.63;8.25;;;;;;;7.01;98.27;102048.72;5094842;28;20035;-65
2021/12/12 08:50:59;;;;;;;18.38;9.40;;;;;;;7.00;98.25;102039.06;5094544;28;20126;-65
2021/12/12 08:53:25;;;;;;;18.67;9.43;;;;;;;7.02;97.98;102050.53;5093536;28;20032;-65
2021/12/12 08:55:54;;;;;;;20.92;10.00;;;;;;;7.05;97.82;102060.28;5094630;28;20372;-65
2021/12/12 08:58:23;;;;;;;15.93;8.70;;;;;;;7.06;97.92;102052.44;5094688;28;20099;-64
2021/12/12 09:01:07;;;;;;;23.45;10.30;;;;;;;7.09;99.01;102054.34;5094168;28;20031;-65
2021/12/12 09:03:51;;;;;;;16.55;9.35;;;;;;;7.10;98.63;102054.38;5094274;28;20181;-65
2021/12/12 09:06:18;;;;;;;22.10;9.85;;;;;;;7.12;98.49;102052.75;5094163;28;20389;-65
2021/12/12 09:08:49;;;;;;;25.75;10.20;;;;;;;7.14;98.58;102044.91;5093991;28;20457;-65
2021/12/12 09:11:19;;;;;;;17.70;9.50;;;;;;;7.16;99.05;102057.31;5075726;28;20119;-65
2021/12/12 09:13:54;;;;;;;22.48;9.70;;;;;;;7.17;98.80;102066.97;5094247;28;20384;-65
2021/12/12 09:16:30;;;;;;;20.35;9.60;;;;;;;7.20;98.25;102072.38;5094082;28;20165;-65
2021/12/12 09:19:10;;;;;;;22.38;9.50;;;;;;;7.22;98.86;102078.59;5093975;28;20545;-64
2021/12/12 09:21:51;;;;;;;25.23;9.55;;;;;;;7.24;98.53;102090.09;5093932;28;20059;-65
2021/12/12 09:24:46;;;;;;;23.13;9.82;;;;;;;7.25;98.31;102080.47;5093834;28;20095;-65
2021/12/12 09:27:23;;;;;;;22.88;9.82;;;;;;;7.25;98.96;102084.00;5011981;28;20042;-65
2021/12/12 09:29:56;;;;;;;28.35;10.27;;;;;;;7.27;98.53;102084.94;5011785;28;20030;-65
2021/12/12 09:32:29;;;;;;;23.20;10.40;;;;;;;7.30;99.35;102093.81;5011431;28;20089;-65
2021/12/12 09:35:09;;;;;;;18.45;8.35;;;;;;;7.31;99.06;102101.75;5011831;28;20034;-65
2021/12/12 09:37:41;;;;;;;23.02;9.77;;;;;;;7.32;98.40;102095.66;5011625;28;20050;-66
2021/12/12 09:40:14;;;;;;;18.55;9.75;;;;;;;7.34;99.04;102099.28;5011696;28;20038;-65
2021/12/12 09:43:11;;;;;;;19.13;8.95;;;;;;;7.36;99.41;102099.31;5011510;28;20041;-65
2021/12/12 09:45:36;;;;;;;22.67;9.30;;;;;;;7.37;98.54;102109.94;5011858;28;20038;-65
2021/12/12 09:51:16;;;;;;;20.45;9.65;;;;;;;7.41;98.64;102110.94;5011354;28;20072;-66
2021/12/12 09:53:56;;;;;;;22.50;9.25;;;;;;;7.42;99.33;102107.50;5011520;28;20025;-64
2021/12/12 09:56:28;;;;;;;20.58;10.68;;;;;;;7.43;98.76;102112.81;5011513;28;20038;-64
2021/12/12 09:59:09;;;;;;;18.73;8.90;;;;;;;7.48;98.98;102116.53;5011432;28;20129;-66
2021/12/12 10:01:46;;;;;;;22.50;9.82;;;;;;;7.47;98.68;102106.88;5011294;28;20410;-67
2021/12/12 10:04:23;;;;;;;19.10;9.13;;;;;;;7.50;98.17;102106.13;5073391;28;20039;-66
2021/12/12 10:07:16;;;;;;;18.75;9.70;;;;;;;7.52;98.45;102102.69;5093339;28;20031;-68
2021/12/12 10:09:54;;;;;;;21.33;8.95;;;;;;;7.58;97.77;102098.53;5093275;28;20020;-67
2021/12/12 10:12:25;;;;;;;21.23;9.60;;;;;;;7.59;97.74;102101.25;5093306;28;20039;-67
2021/12/12 10:15:04;;;;;;;18.88;9.55;;;;;;;7.60;98.71;102103.03;5093319;28;20032;-66
2021/12/12 10:17:43;;;;;;;18.02;8.40;;;;;;;7.64;98.63;102097.06;5093415;28;20109;-67
2021/12/12 10:20:21;;;;;;;19.30;9.30;;;;;;;7.65;98.05;102101.50;5093188;28;20028;-66
2021/12/12 10:23:24;;;;;;;20.85;9.38;;;;;;;7.67;98.86;102101.56;5092938;28;20028;-66
2021/12/12 10:25:58;;;;;;;19.95;9.18;;;;;;;7.71;98.25;102092.97;5011196;28;20045;-66
2021/12/12 10:28:49;;;;;;;19.63;9.93;;;;;;;7.73;98.78;102097.47;5011176;28;20038;-65
2021/12/12 10:31:39;;;;;;;17.77;9.55;;;;;;;7.75;98.94;102103.69;5010762;28;20038;-66
2021/12/12 10:34:14;;;;;;;21.10;11.23;;;;;;;7.76;98.43;102116.00;5010974;28;20120;-66
2021/12/12 10:36:44;;;;;;;19.42;9.00;;;;;;;7.77;98.96;102101.13;5010987;28;20088;-66
2021/12/12 10:39:17;;;;;;;18.30;9.10;;;;;;;7.83;98.46;102108.38;5010919;28;20032;-66
2021/12/12 10:41:52;;;;;;;19.10;9.40;;;;;;;7.83;98.32;102105.72;5011107;28;20038;-65
2021/12/12 10:44:30;;;;;;;19.90;9.27;;;;;;;7.84;98.60;102110.19;5011135;28;20022;-65
2021/12/12 10:47:06;;;;;;;20.98;9.63;;;;;;;7.85;98.28;102104.97;5010855;28;20140;-66
2021/12/12 10:49:52;;;;;;;24.75;10.80;;;;;;;7.87;99.00;102108.56;5010994;28;20033;-66
2021/12/12 10:53:05;;;;;;;19.27;9.07;;;;;;;7.89;98.79;102106.00;5010913;28;20113;-67
2021/12/12 10:56:03;;;;;;;18.35;9.55;;;;;;;7.89;98.15;102112.16;4991005;28;20093;-67
2021/12/12 10:58:38;;;;;;;20.70;10.02;;;;;;;7.91;98.43;102113.13;4991243;28;20084;-66
2021/12/12 11:01:12;;;;;;;15.25;9.32;;;;;;;7.91;98.63;102109.59;5005115;28;20120;-67
2021/12/12 11:03:48;;;;;;;19.88;10.00;;;;;;;7.91;99.07;102113.13;5030531;28;20049;-66
2021/12/12 11:06:21;;;;;;;19.98;9.90;;;;;;;7.95;98.78;102112.41;5030584;28;20038;-66
2021/12/12 11:08:57;;;;;;;18.95;10.30;;;;;;;7.97;99.31;102109.88;5030329;28;20033;-67
2021/12/12 11:11:36;;;;;;;20.33;9.48;;;;;;;8.00;98.62;102112.59;5030368;28;20035;-67
2021/12/12 11:14:14;;;;;;;18.50;9.30;;;;;;;8.01;99.31;102103.88;5030440;28;20052;-68
2021/12/12 11:16:47;;;;;;;17.60;9.75;;;;;;;8.03;99.29;102108.38;5032704;28;20099;-68
2021/12/12 11:19:20;;;;;;;22.77;10.57;;;;;;;8.08;99.14;102113.81;5034052;28;20087;-66
2021/12/12 11:21:52;;;;;;;18.17;9.77;;;;;;;8.12;98.83;102105.22;5034124;28;20033;-67
2021/12/12 11:24:26;;;;;;;19.75;10.25;;;;;;;8.15;98.57;102107.97;5034033;28;20474;-65
2021/12/12 11:27:05;;;;;;;18.25;9.70;;;;;;;8.18;98.68;102109.81;5033852;28;20041;-67
2021/12/12 11:29:42;;;;;;;19.85;10.02;;;;;;;8.20;98.78;102105.53;5033862;28;20530;-67
2021/12/12 11:32:12;;;;;;;17.17;9.10;;;;;;;8.24;98.77;102102.19;5060437;28;20047;-66
2021/12/12 11:34:42;;;;;;;15.38;9.30;;;;;;;8.25;98.67;102107.50;5096308;28;20055;-67
2021/12/12 11:37:29;;;;;;;14.40;8.32;;;;;;;8.26;98.29;102100.50;5096291;28;20050;-66
2021/12/12 11:40:04;;;;;;;14.48;8.70;;;;;;;8.25;98.94;102099.59;5095937;28;20042;-67
2021/12/12 11:42:57;;;;;;;15.35;9.23;;;;;;;8.29;98.56;102105.91;5095844;28;20107;-66
2021/12/12 11:45:30;;;;;;;12.55;7.90;;;;;;;8.28;98.28;102105.00;5096002;28;20035;-68
2021/12/12 11:48:05;;;;;;;16.00;9.40;;;;;;;8.29;99.01;102114.69;5095937;28;20023;-66
2021/12/12 11:50:49;;;;;;;14.98;8.70;;;;;;;8.32;98.56;102110.41;5095720;28;20028;-66
2021/12/12 11:53:35;;;;;;;16.38;8.55;;;;;;;8.35;99.19;102110.50;5095587;28;20047;-66
2021/12/12 11:56:23;;;;;;;13.20;7.80;;;;;;;8.35;98.70;102106.16;5095842;28;20016;-67
2021/12/12 11:59:14;;;;;;;13.73;8.40;;;;;;;8.37;98.82;102106.25;5095495;28;20404;-67
2021/12/12 12:01:46;;;;;;;15.05;8.43;;;;;;;8.38;98.49;102108.03;5095562;28;20035;-66
2021/12/12 12:04:42;;;;;;;13.80;8.73;;;;;;;8.37;98.35;102098.34;5095400;28;20032;-65